createdAt,value
2022-10-21T11:00:57.206Z,99953.91
2022-10-21T11:06:19.732Z,99950.38
2022-10-21T11:11:22.693Z,99947.59
2022-10-21T11:16:45.103Z,99944.38
2022-10-21T11:22:22.012Z,99935.97
2022-10-21T11:27:24.247Z,99931.09
2022-10-21T11:32:26.593Z,99940.22
2022-10-21T11:37:39.731Z,99925.41
2022-10-21T11:42:44.143Z,99933.31
2022-10-21T11:47:53.118Z,99931.66
2022-10-21T11:53:28.589Z,99939.19
2022-10-21T11:58:33.854Z,99934.75
2022-10-21T12:03:55.659Z,99934.72
2022-10-21T12:09:00.639Z,99933.16
2022-10-21T12:14:41.640Z,99929.34
2022-10-21T12:19:47.542Z,99921.22
2022-10-21T12:25:08.652Z,99916.13
2022-10-21T12:30:23.525Z,99907.59
2022-10-21T12:35:46.464Z,99900.75
2022-10-21T12:40:49.595Z,99904.31
2022-10-21T12:46:02.899Z,99898.72
2022-10-21T12:51:17.017Z,99906.88
2022-10-21T12:56:27.755Z,99894.09
2022-10-21T13:01:36.199Z,99893.84
2022-10-21T13:06:50.637Z,99902.31
2022-10-21T13:12:02.774Z,99898.53
2022-10-21T13:17:15.199Z,99911.66
2022-10-21T13:22:20.060Z,99913.00
2022-10-21T13:32:37.454Z,99911.13
2022-10-21T13:37:42.381Z,99905.00
2022-10-21T13:42:59.121Z,99906.69
2022-10-21T13:48:12.815Z,99913.53
2022-10-21T13:53:26.163Z,99906.38
2022-10-21T13:58:30.851Z,99901.69
2022-10-21T14:03:33.128Z,99902.34
2022-10-21T14:08:42.667Z,99901.50
2022-10-21T14:13:45.612Z,99904.91
2022-10-21T14:18:48.414Z,99901.50
2022-10-21T14:23:51.538Z,99903.66
2022-10-21T14:28:53.995Z,99901.31
2022-10-21T14:33:56.561Z,99911.97
2022-10-21T14:39:05.679Z,99901.91
2022-10-21T14:44:20.188Z,99893.41
2022-10-21T14:49:30.285Z,99903.19
2022-10-21T14:54:38.696Z,99901.50
2022-10-21T14:59:42.986Z,99899.06
2022-10-21T15:05:01.374Z,99899.63
2022-10-21T15:10:03.555Z,99904.22
2022-10-21T15:15:25.833Z,99902.63
2022-10-21T15:20:31.137Z,99897.47
2022-10-21T15:30:45.090Z,99914.66
2022-10-21T15:35:59.256Z,99911.06
2022-10-21T15:41:02.112Z,99910.13
2022-10-21T15:46:04.332Z,99904.59
2022-10-21T15:51:06.606Z,99912.25
2022-10-21T15:56:12.015Z,99903.78
2022-10-21T16:01:17.672Z,99901.41
2022-10-21T16:06:21.109Z,99903.44
2022-10-21T16:11:34.688Z,99897.78
2022-10-21T16:16:45.764Z,99911.69
2022-10-21T16:21:48.144Z,99910.50
2022-10-21T16:26:51.058Z,99919.28
2022-10-21T16:31:53.512Z,99914.53
2022-10-21T16:36:55.738Z,99931.84
2022-10-21T16:41:57.993Z,99941.66
2022-10-21T16:47:00.191Z,99936.84
2022-10-21T16:52:02.466Z,99883.16
2022-10-21T16:57:07.014Z,99954.19
2022-10-21T17:02:14.835Z,99957.25
2022-10-21T17:07:17.048Z,99968.91
2022-10-21T17:12:19.328Z,99965.75
2022-10-21T17:17:22.402Z,99979.38
2022-10-21T17:22:24.696Z,99979.16
2022-10-21T17:27:26.936Z,99984.59
2022-10-21T17:32:29.233Z,99995.41
2022-10-21T17:37:31.408Z,99988.78
2022-10-21T17:42:33.608Z,99991.78
2022-10-21T17:47:36.993Z,99993.66
2022-10-21T17:52:39.794Z,100005.13
2022-10-21T17:58:29.576Z,99999.19
2022-10-21T18:03:32.350Z,99992.72
2022-10-21T18:08:34.853Z,99987.31
2022-10-21T18:13:37.590Z,99991.31
2022-10-21T18:18:40.098Z,99987.47
2022-10-21T18:23:43.140Z,100001.97
2022-10-21T18:28:50.319Z,99992.97
2022-10-21T18:33:53.778Z,99997.72
2022-10-21T18:38:57.932Z,99996.94
2022-10-21T18:44:08.219Z,99997.50
2022-10-21T18:49:15.036Z,100002.31
2022-10-21T18:54:17.357Z,100003.88
2022-10-21T18:59:19.655Z,100006.69
2022-10-21T19:04:21.937Z,100002.47
2022-10-21T19:09:28.779Z,100008.66
2022-10-21T19:14:33.897Z,100012.47
2022-10-21T19:19:39.337Z,100007.22
2022-10-21T19:24:41.814Z,100008.13
2022-10-21T19:29:45.026Z,100005.75
2022-10-21T19:34:47.226Z,100008.28
2022-10-21T19:39:50.573Z,100015.50
2022-10-21T19:44:52.787Z,100013.78
2022-10-21T19:49:54.994Z,100018.19
2022-10-21T19:54:57.209Z,100023.50
2022-10-21T19:59:59.521Z,100027.84
2022-10-21T20:05:01.760Z,100029.03
2022-10-21T20:10:04.960Z,100030.09
2022-10-21T20:15:07.488Z,100038.88
2022-10-21T20:20:09.849Z,100048.72
2022-10-21T20:25:14.051Z,100051.81
2022-10-21T20:30:16.184Z,100059.13
2022-10-21T20:35:19.163Z,100048.63
2022-10-21T20:40:21.517Z,100049.53
2022-10-21T20:45:23.826Z,100053.34
2022-10-21T20:50:26.224Z,100058.38
2022-10-21T20:55:28.365Z,100062.50
2022-10-21T21:00:30.965Z,100051.09
2022-10-21T21:05:38.037Z,100042.44
2022-10-21T21:10:41.245Z,100046.28
2022-10-21T21:15:43.513Z,100052.28
2022-10-21T21:20:45.714Z,100045.22
2022-10-21T21:25:47.968Z,100049.41
2022-10-21T21:30:51.971Z,100043.91
2022-10-21T21:35:57.679Z,100055.31
2022-10-21T21:47:22.022Z,100059.38
2022-10-21T21:52:25.847Z,100054.91
2022-10-21T21:57:28.704Z,100065.09
2022-10-21T22:02:30.962Z,100061.50
2022-10-21T22:07:33.302Z,100075.84
2022-10-21T22:12:35.509Z,100080.56
2022-10-21T22:17:38.238Z,100052.22
2022-10-21T22:22:40.797Z,100071.78
2022-10-21T22:27:43.339Z,100071.94
2022-10-21T22:32:45.504Z,100077.22
2022-10-21T22:37:47.750Z,100075.31
2022-10-21T22:42:49.917Z,100076.91
2022-10-21T22:47:52.052Z,100065.44
2022-10-21T22:52:55.024Z,100069.69
2022-10-21T22:57:57.437Z,100068.13
2022-10-21T23:02:59.581Z,100069.94
2022-10-21T23:08:01.792Z,100061.47
2022-10-21T23:13:06.020Z,100076.75
2022-10-21T23:18:08.236Z,100073.34
2022-10-21T23:23:10.767Z,100072.25
2022-10-21T23:28:13.526Z,100069.00
2022-10-21T23:33:15.715Z,100063.81
2022-10-21T23:38:17.967Z,100056.22
2022-10-21T23:43:20.207Z,100061.56
2022-10-21T23:48:22.341Z,100064.25
2022-10-21T23:53:25.125Z,100066.59
2022-10-21T23:58:27.342Z,100061.47
